createdAt,value
2023-01-09T00:03:03.055Z,-13.70
2023-01-09T00:08:06.548Z,-13.55
2023-01-09T00:13:14.593Z,-13.70
2023-01-09T00:18:17.745Z,-13.83
2023-01-09T00:23:20.989Z,-13.72
2023-01-09T00:28:24.059Z,-13.75
2023-01-09T00:33:30.429Z,-13.83
2023-01-09T00:38:33.878Z,-13.98
2023-01-09T00:43:44.575Z,-13.86
2023-01-09T00:48:49.845Z,-13.83
2023-01-09T00:53:53.201Z,-13.75
2023-01-09T00:58:59.392Z,-13.55
2023-01-09T01:04:25.304Z,-13.75
2023-01-09T01:09:28.950Z,-13.58
2023-01-09T01:14:32.215Z,-13.92
2023-01-09T01:19:35.798Z,-13.89
2023-01-09T01:24:39.036Z,-13.58
2023-01-09T01:29:48.998Z,-13.74
2023-01-09T01:34:52.208Z,-13.73
2023-01-09T01:39:55.468Z,-13.94
2023-01-09T01:45:09.530Z,-13.75
2023-01-09T01:50:31.124Z,-13.65
2023-01-09T01:55:36.578Z,-13.94
2023-01-09T02:00:44.047Z,-13.85
2023-01-09T02:05:47.322Z,-13.85
2023-01-09T02:10:51.175Z,-13.92
2023-01-09T02:15:56.849Z,-13.65
2023-01-09T02:21:20.066Z,-13.79
2023-01-09T02:26:54.609Z,-13.55
2023-01-09T02:32:15.995Z,-13.41
2023-01-09T02:37:41.311Z,-13.35
2023-01-09T02:43:46.370Z,-13.55
2023-01-09T02:48:18.459Z,-13.49
2023-01-09T02:53:33.520Z,-13.52
2023-01-09T02:59:07.399Z,-13.47
2023-01-09T03:04:44.573Z,-13.46
2023-01-09T03:09:50.838Z,-13.47
2023-01-09T03:14:58.529Z,-13.48
2023-01-09T03:20:04.732Z,-13.57
2023-01-09T03:25:08.184Z,-13.34
2023-01-09T03:30:11.856Z,-13.60
2023-01-09T03:35:14.998Z,-13.47
2023-01-09T03:40:19.297Z,-13.14
2023-01-09T03:45:22.390Z,-13.18
2023-01-09T03:50:25.593Z,-13.34
2023-01-09T03:55:28.907Z,-13.34
2023-01-09T04:00:32.294Z,-13.32
2023-01-09T04:05:36.017Z,-13.13
2023-01-09T04:10:39.103Z,-13.05
2023-01-09T04:15:42.338Z,-13.27
2023-01-09T04:20:48.255Z,-13.19
2023-01-09T04:25:51.300Z,-13.17
2023-01-09T04:30:54.669Z,-13.29
2023-01-09T04:35:57.734Z,-13.35
2023-01-09T04:41:00.807Z,-13.22
2023-01-09T04:46:03.946Z,-13.22
2023-01-09T04:51:09.653Z,-13.45
2023-01-09T04:56:12.725Z,-13.53
2023-01-09T05:01:16.006Z,-13.30
2023-01-09T05:06:19.264Z,-13.08
2023-01-09T05:11:22.720Z,-13.38
2023-01-09T05:16:26.011Z,-13.37
2023-01-09T05:21:29.184Z,-13.10
2023-01-09T05:26:32.330Z,-12.90
2023-01-09T05:31:35.575Z,-12.86
2023-01-09T05:36:38.768Z,-12.71
2023-01-09T05:41:42.048Z,-12.63
2023-01-09T05:52:02.823Z,-11.96
2023-01-09T05:57:06.240Z,-11.78
2023-01-09T06:02:09.716Z,-12.03
2023-01-09T06:07:17.183Z,-11.22
2023-01-09T06:12:22.602Z,-11.21
2023-01-09T06:17:25.659Z,-11.24
2023-01-09T06:22:28.685Z,-10.75
2023-01-09T06:27:31.776Z,-10.76
2023-01-09T06:32:34.905Z,-10.74
2023-01-09T06:37:37.968Z,-10.77
2023-01-09T06:48:05.771Z,-10.40
2023-01-09T06:53:09.045Z,-10.30
2023-01-09T06:58:12.483Z,-10.13
2023-01-09T07:03:22.858Z,-9.99
2023-01-09T07:08:26.106Z,-9.87
2023-01-09T07:13:29.220Z,-10.11
2023-01-09T07:18:32.339Z,-10.40
2023-01-09T07:23:35.424Z,-9.85
2023-01-09T07:28:38.519Z,-9.66
2023-01-09T07:33:41.608Z,-9.53
2023-01-09T07:38:44.761Z,-9.79
2023-01-09T07:43:47.909Z,-9.80
2023-01-09T07:48:51.041Z,-10.23
2023-01-09T07:53:54.460Z,-9.94
2023-01-09T07:58:57.533Z,-10.02
2023-01-09T08:04:00.907Z,-10.12
2023-01-09T08:14:26.594Z,-9.65
2023-01-09T08:19:29.697Z,-9.62
2023-01-09T08:24:33.237Z,-9.57
2023-01-09T08:29:36.384Z,-9.73
2023-01-09T08:34:39.493Z,-10.09
2023-01-09T08:39:42.642Z,-9.70
2023-01-09T08:45:04.404Z,-9.73
2023-01-09T08:50:09.374Z,-9.32
2023-01-09T08:55:12.478Z,-9.65
2023-01-09T09:00:16.307Z,-9.59
2023-01-09T09:05:20.100Z,-9.81
2023-01-09T09:10:25.557Z,-10.02
2023-01-09T09:15:29.262Z,-9.84
2023-01-09T09:20:35.044Z,-9.68
2023-01-09T09:25:38.789Z,-9.96
2023-01-09T09:30:42.981Z,-10.09
2023-01-09T09:35:46.237Z,-10.20
2023-01-09T09:41:29.332Z,-10.24
2023-01-09T09:46:42.348Z,-10.17
2023-01-09T09:51:56.808Z,-10.10
2023-01-09T10:02:28.929Z,-10.14
2023-01-09T10:07:42.454Z,-9.70
2023-01-09T10:12:56.269Z,-9.97
2023-01-09T10:18:31.177Z,-9.98
2023-01-09T10:24:05.783Z,-9.94
2023-01-09T10:29:44.731Z,-9.73
2023-01-09T10:35:11.755Z,-9.82
2023-01-09T10:40:26.572Z,-10.21
2023-01-09T10:45:44.774Z,-9.99
2023-01-09T10:50:49.717Z,-10.06
2023-01-09T10:56:02.419Z,-10.51
2023-01-09T11:01:06.386Z,-10.12
2023-01-09T11:06:22.327Z,-10.49
2023-01-09T11:11:52.773Z,-10.49
2023-01-09T11:16:58.706Z,-10.30
2023-01-09T11:22:09.306Z,-10.10
2023-01-09T11:27:24.017Z,-10.40
2023-01-09T11:32:29.679Z,-10.25
2023-01-09T11:37:33.872Z,-10.46
2023-01-09T11:42:52.168Z,-10.59
2023-01-09T11:47:55.300Z,-10.34
2023-01-09T11:53:19.229Z,-10.45
2023-01-09T11:58:22.538Z,-10.08
2023-01-09T12:04:08.416Z,-10.20
2023-01-09T12:09:55.389Z,-10.28
2023-01-09T12:15:04.919Z,-10.40
2023-01-09T12:20:14.497Z,-10.54
2023-01-09T12:25:45.236Z,-10.65
2023-01-09T12:30:48.267Z,-10.83
2023-01-09T12:36:28.232Z,-11.11
2023-01-09T12:41:34.133Z,-11.24
2023-01-09T12:47:16.917Z,-11.12
2023-01-09T12:52:26.384Z,-11.35
2023-01-09T12:57:37.984Z,-11.50
2023-01-09T13:03:12.091Z,-11.46
2023-01-09T13:08:31.848Z,-11.55
2023-01-09T13:13:51.121Z,-11.42
2023-01-09T13:19:03.966Z,-11.81
2023-01-09T13:24:22.713Z,-11.76
2023-01-09T13:29:30.681Z,-11.86
2023-01-09T13:34:36.508Z,-11.93
2023-01-09T13:39:39.648Z,-12.14
2023-01-09T13:44:43.357Z,-11.96
2023-01-09T13:49:48.647Z,-11.83
2023-01-09T13:55:00.410Z,-11.92
2023-01-09T14:00:13.002Z,-12.12
2023-01-09T14:05:37.303Z,-11.98
2023-01-09T14:10:49.259Z,-12.21
2023-01-09T14:16:02.028Z,-12.23
2023-01-09T14:26:22.399Z,-12.46
2023-01-09T14:31:30.915Z,-12.36
2023-01-09T14:36:35.688Z,-12.45
2023-01-09T14:42:08.313Z,-12.41
2023-01-09T14:47:31.963Z,-12.67
2023-01-09T14:53:08.445Z,-12.74
2023-01-09T14:58:26.352Z,-12.91
2023-01-09T15:03:45.456Z,-13.02
2023-01-09T15:09:17.997Z,-13.00
2023-01-09T15:14:30.985Z,-12.90
2023-01-09T15:19:46.945Z,-13.22
2023-01-09T15:24:50.512Z,-13.11
2023-01-09T15:29:53.897Z,-13.35
2023-01-09T15:34:58.371Z,-13.32
2023-01-09T15:40:05.278Z,-13.52
2023-01-09T15:45:19.151Z,-13.21
2023-01-09T15:50:29.065Z,-13.57
2023-01-09T15:55:35.465Z,-13.26
2023-01-09T16:00:42.160Z,-13.20
2023-01-09T16:05:50.048Z,-13.59
2023-01-09T16:10:56.652Z,-13.43
2023-01-09T16:16:02.054Z,-13.49
2023-01-09T16:21:25.553Z,-13.54
2023-01-09T16:26:31.217Z,-13.35
2023-01-09T16:31:35.773Z,-13.27
2023-01-09T16:36:38.939Z,-13.68
2023-01-09T16:42:02.042Z,-13.87
2023-01-09T16:47:07.630Z,-13.75
2023-01-09T16:52:18.185Z,-13.85
2023-01-09T16:57:21.342Z,-13.82
2023-01-09T17:02:24.514Z,-13.82
2023-01-09T17:07:28.307Z,-13.90
2023-01-09T17:12:31.423Z,-13.92
2023-01-09T17:17:34.532Z,-13.98
2023-01-09T17:22:37.783Z,-14.15
2023-01-09T17:28:01.870Z,-14.10
2023-01-09T17:33:05.726Z,-14.07
2023-01-09T17:38:15.653Z,-14.10
2023-01-09T17:43:19.283Z,-14.10
2023-01-09T17:48:22.899Z,-14.30
2023-01-09T17:53:26.065Z,-14.39
2023-01-09T17:58:30.649Z,-14.13
2023-01-09T18:03:34.836Z,-14.58
2023-01-09T18:08:38.461Z,-14.78
2023-01-09T18:13:41.878Z,-15.08
2023-01-09T18:18:45.616Z,-15.16
2023-01-09T18:23:50.138Z,-15.51
2023-01-09T18:28:59.933Z,-15.53
2023-01-09T18:34:05.668Z,-15.71
2023-01-09T18:39:09.122Z,-15.80
2023-01-09T18:44:12.264Z,-15.98
2023-01-09T18:49:15.977Z,-15.87
2023-01-09T18:54:19.440Z,-16.09
2023-01-09T18:59:22.548Z,-15.61
2023-01-09T19:04:25.891Z,-15.81
2023-01-09T19:09:32.194Z,-15.88
2023-01-09T19:19:55.899Z,-15.89
2023-01-09T19:24:59.104Z,-15.87
2023-01-09T19:30:02.263Z,-15.91
2023-01-09T19:35:07.088Z,-15.93
2023-01-09T19:40:11.403Z,-16.07
2023-01-09T19:45:15.727Z,-15.89
2023-01-09T19:50:19.203Z,-16.22
2023-01-09T19:55:22.539Z,-16.09
2023-01-09T20:00:25.674Z,-16.15
2023-01-09T20:05:28.769Z,-16.33
2023-01-09T20:10:32.122Z,-16.15
2023-01-09T20:15:35.454Z,-16.07
2023-01-09T20:20:38.547Z,-16.19
2023-01-09T20:25:41.722Z,-16.00
2023-01-09T20:30:50.713Z,-16.28
2023-01-09T20:35:53.776Z,-16.28
2023-01-09T20:40:56.917Z,-16.27
2023-01-09T20:46:07.139Z,-16.34
2023-01-09T20:51:12.435Z,-16.32
2023-01-09T20:56:26.756Z,-16.13
2023-01-09T21:01:30.109Z,-16.31
2023-01-09T21:11:50.167Z,-16.51
2023-01-09T21:16:55.030Z,-16.54
2023-01-09T21:21:58.439Z,-16.66
2023-01-09T21:27:01.540Z,-16.60
2023-01-09T21:32:04.634Z,-16.70
2023-01-09T21:37:07.795Z,-16.73
2023-01-09T21:42:29.281Z,-16.86
2023-01-09T21:52:50.218Z,-16.85
2023-01-09T21:57:56.873Z,-16.98
2023-01-09T22:03:02.479Z,-16.85
2023-01-09T22:08:05.730Z,-16.95
2023-01-09T22:13:16.504Z,-17.02
2023-01-09T22:18:19.590Z,-17.08
2023-01-09T22:23:22.643Z,-16.86
2023-01-09T22:28:25.792Z,-17.07
2023-01-09T22:33:28.907Z,-17.20
2023-01-09T22:38:32.040Z,-17.49
2023-01-09T22:43:35.186Z,-17.53
2023-01-09T22:48:38.830Z,-17.64
2023-01-09T22:53:42.447Z,-17.59
2023-01-09T22:58:49.735Z,-17.78
2023-01-09T23:03:53.014Z,-17.68
2023-01-09T23:08:56.090Z,-17.92
2023-01-09T23:14:20.039Z,-17.80
2023-01-09T23:19:23.141Z,-18.04
2023-01-09T23:24:27.842Z,-17.88
2023-01-09T23:29:31.203Z,-18.00
2023-01-09T23:34:34.297Z,-18.38
2023-01-09T23:39:37.430Z,-18.16
2023-01-09T23:44:40.629Z,-18.52
2023-01-09T23:49:43.697Z,-18.16
2023-01-09T23:54:46.792Z,-18.44
2023-01-09T23:59:49.941Z,-18.44
